Terminal Aerodrome Forecast
Issued by NWS

Home | Current Version | Previous Version | Text Only | Print | Product List | Glossary Off
Versions: 1 2 3 4 5 6 7 8 9 10 11 12 13

000
FTUS42 KTBW 041121
TAFPIE
TAF
KPIE 041121Z 0412/0512 10008KT P6SM SKC
     FM041500 12011KT P6SM SCT030 SCT250
     FM042100 16009KT P6SM BKN035
     FM050700 12005KT 4SM BR BKN012=

USA.gov is the U.S. government's official web portal to all federal, state and local government web resources and services.